createdAt,value
2024-01-30T00:00:05.654Z,1.09
2024-01-30T00:02:33.491Z,0.68
2024-01-30T00:05:00.414Z,1.04
2024-01-30T00:07:27.563Z,1.33
2024-01-30T00:09:54.506Z,1.16
2024-01-30T00:12:21.791Z,1.23
2024-01-30T00:14:49.625Z,1.47
2024-01-30T00:17:18.219Z,1.75
2024-01-30T00:19:45.215Z,1.24
2024-01-30T00:22:12.280Z,1.45
2024-01-30T00:24:39.157Z,1.17
2024-01-30T00:27:06.039Z,0.72
2024-01-30T00:29:34.991Z,0.95
2024-01-30T00:32:02.019Z,1.47
2024-01-30T00:34:28.677Z,1.28
2024-01-30T00:36:55.603Z,0.84
2024-01-30T00:39:22.605Z,0.68
2024-01-30T00:41:49.404Z,0.79
2024-01-30T00:44:16.146Z,0.73
2024-01-30T00:46:42.961Z,1.39
2024-01-30T00:49:09.707Z,1.00
2024-01-30T00:51:36.679Z,0.37
2024-01-30T00:54:04.172Z,0.34
2024-01-30T00:56:31.118Z,0.56
2024-01-30T00:58:57.988Z,-0.88
2024-01-30T01:01:24.818Z,-1.01
2024-01-30T01:03:51.814Z,-0.18
2024-01-30T01:06:18.819Z,0.32
2024-01-30T01:08:45.694Z,0.36
2024-01-30T01:11:12.332Z,0.64
2024-01-30T01:13:39.136Z,0.45
2024-01-30T01:16:06.305Z,0.56
2024-01-30T01:18:33.165Z,0.82
2024-01-30T01:21:00.617Z,0.99
2024-01-30T01:23:27.629Z,0.69
2024-01-30T01:25:55.806Z,0.29
2024-01-30T01:28:23.728Z,0.32
2024-01-30T01:30:50.436Z,0.45
2024-01-30T01:33:17.473Z,0.31
2024-01-30T01:35:44.363Z,-0.16
2024-01-30T01:38:11.129Z,0.02
2024-01-30T01:40:40.786Z,0.18
2024-01-30T01:43:07.920Z,0.85
2024-01-30T01:45:34.866Z,0.79
2024-01-30T01:48:01.824Z,0.56
2024-01-30T01:50:29.388Z,0.58
2024-01-30T01:52:56.822Z,0.85
2024-01-30T01:55:26.206Z,0.52
2024-01-30T01:57:54.240Z,0.32
2024-01-30T02:00:21.468Z,0.69
2024-01-30T02:02:48.592Z,0.91
2024-01-30T02:05:17.084Z,0.67
2024-01-30T02:07:45.064Z,0.27
2024-01-30T02:10:12.131Z,0.48
2024-01-30T02:12:39.656Z,0.86
2024-01-30T02:15:08.642Z,0.21
2024-01-30T02:17:35.682Z,-0.13
2024-01-30T02:20:03.239Z,0.29
2024-01-30T02:22:30.404Z,0.10
2024-01-30T02:24:57.276Z,0.21
2024-01-30T02:27:24.003Z,0.26
2024-01-30T02:29:50.812Z,0.33
2024-01-30T02:32:17.554Z,0.50
2024-01-30T02:34:44.427Z,-0.23
2024-01-30T02:37:11.413Z,-0.04
2024-01-30T02:39:38.331Z,-0.01
2024-01-30T02:42:05.442Z,-0.19
2024-01-30T02:44:32.291Z,0.01
2024-01-30T02:46:59.009Z,-0.22
2024-01-30T02:49:25.974Z,0.05
2024-01-30T02:51:53.923Z,0.45
2024-01-30T02:54:20.817Z,0.06
2024-01-30T02:56:47.644Z,0.13
2024-01-30T02:59:14.297Z,0.35
2024-01-30T03:01:48.004Z,0.71
2024-01-30T03:04:15.353Z,0.52
2024-01-30T03:06:47.489Z,0.13
2024-01-30T03:09:14.845Z,0.32
2024-01-30T03:11:41.788Z,-0.12
2024-01-30T03:14:09.464Z,0.13
2024-01-30T03:16:36.350Z,0.00
2024-01-30T03:19:04.902Z,0.19
2024-01-30T03:21:31.778Z,0.54
2024-01-30T03:23:58.438Z,0.49
2024-01-30T03:26:25.294Z,0.39
2024-01-30T03:28:51.992Z,0.67
2024-01-30T03:31:18.997Z,0.73
2024-01-30T03:33:46.058Z,0.48
2024-01-30T03:36:13.071Z,0.35
2024-01-30T03:38:39.830Z,-0.05
2024-01-30T03:41:08.749Z,0.35
2024-01-30T03:43:35.559Z,-0.67
2024-01-30T03:46:02.680Z,-0.73
2024-01-30T03:48:30.298Z,-0.80
2024-01-30T03:50:57.127Z,-0.90
2024-01-30T03:53:23.820Z,-0.45
2024-01-30T03:55:50.645Z,-0.24
2024-01-30T03:58:17.337Z,-0.61
2024-01-30T04:00:44.366Z,-1.44
2024-01-30T04:03:11.309Z,-2.27
2024-01-30T04:05:38.247Z,-2.06
2024-01-30T04:08:05.468Z,-1.12
2024-01-30T04:10:32.348Z,-0.68
2024-01-30T04:12:59.293Z,-0.54
2024-01-30T04:15:26.228Z,-0.04
2024-01-30T04:17:53.243Z,-0.12
2024-01-30T04:20:20.263Z,-0.10
2024-01-30T04:22:47.978Z,-0.03
2024-01-30T04:25:15.398Z,0.08
2024-01-30T04:27:42.523Z,0.34
2024-01-30T04:30:10.215Z,0.18
2024-01-30T04:32:37.939Z,0.18
2024-01-30T04:35:08.913Z,0.20
2024-01-30T04:37:38.274Z,0.48
2024-01-30T04:40:05.383Z,0.13
2024-01-30T04:42:32.212Z,0.23
2024-01-30T04:44:59.010Z,-0.12
2024-01-30T04:47:25.655Z,-0.05
2024-01-30T04:49:53.074Z,0.09
2024-01-30T04:52:20.122Z,-0.20
2024-01-30T04:54:47.084Z,-0.27
2024-01-30T04:57:14.042Z,-0.02
2024-01-30T04:59:41.047Z,-0.01
2024-01-30T05:02:08.491Z,0.37
2024-01-30T05:04:35.556Z,-0.31
2024-01-30T05:07:02.490Z,-0.43
2024-01-30T05:09:29.858Z,-0.67
2024-01-30T05:11:57.057Z,-0.61
2024-01-30T05:14:23.914Z,-0.51
2024-01-30T05:16:50.654Z,-0.45
2024-01-30T05:19:18.752Z,-0.44
2024-01-30T05:21:46.025Z,-0.15
2024-01-30T05:24:12.989Z,-0.12
2024-01-30T05:26:39.817Z,-0.37
2024-01-30T05:29:06.731Z,-0.46
2024-01-30T05:31:33.823Z,-0.74
2024-01-30T05:34:00.945Z,-0.57
2024-01-30T05:36:27.940Z,-0.39
2024-01-30T05:38:54.777Z,0.03
2024-01-30T05:41:22.429Z,-0.23
2024-01-30T05:43:49.206Z,-0.15
2024-01-30T05:46:16.026Z,-0.27
2024-01-30T05:48:42.958Z,-0.32
2024-01-30T05:51:10.053Z,-0.12
2024-01-30T05:53:36.940Z,-0.26
2024-01-30T05:56:03.934Z,-0.50
2024-01-30T05:58:32.289Z,-0.34
2024-01-30T06:00:59.661Z,-0.46
2024-01-30T06:03:26.760Z,-0.23
2024-01-30T06:05:53.640Z,0.09
2024-01-30T06:08:20.477Z,0.03
2024-01-30T06:10:47.226Z,-0.53
2024-01-30T06:13:14.043Z,-0.22
2024-01-30T06:15:40.932Z,-0.09
2024-01-30T06:18:07.922Z,-0.61
2024-01-30T06:20:34.900Z,-0.60
2024-01-30T06:23:02.047Z,-0.51
2024-01-30T06:25:28.986Z,-0.42
2024-01-30T06:27:56.215Z,-0.57
2024-01-30T06:30:23.024Z,-0.51
2024-01-30T06:32:49.920Z,-0.50
2024-01-30T06:35:18.819Z,-0.44
2024-01-30T06:37:45.665Z,-0.56
2024-01-30T06:40:12.822Z,-0.45
2024-01-30T06:42:39.712Z,-0.44
2024-01-30T06:45:07.049Z,-0.15
2024-01-30T06:47:34.058Z,-0.20
2024-01-30T06:50:01.181Z,-0.95
2024-01-30T06:52:28.202Z,-0.65
2024-01-30T06:54:55.885Z,-0.59
2024-01-30T06:57:22.789Z,-0.43
2024-01-30T06:59:49.418Z,0.00
2024-01-30T07:02:16.470Z,-1.26
2024-01-30T07:04:47.025Z,-0.27
2024-01-30T07:07:16.987Z,-0.64
2024-01-30T07:09:44.071Z,0.08
2024-01-30T07:12:10.955Z,-0.02
2024-01-30T07:14:38.029Z,0.09
2024-01-30T07:17:05.042Z,1.79
2024-01-30T07:19:31.887Z,3.23
2024-01-30T07:21:58.871Z,4.29
2024-01-30T07:24:25.731Z,3.44
2024-01-30T07:26:52.768Z,2.56
2024-01-30T07:29:19.643Z,3.35
2024-01-30T07:31:46.542Z,2.82
2024-01-30T07:34:13.594Z,2.42
2024-01-30T07:36:40.514Z,3.94
2024-01-30T07:39:07.751Z,5.08
2024-01-30T07:41:34.685Z,5.41
2024-01-30T07:44:01.445Z,6.74
2024-01-30T07:46:28.112Z,5.87
2024-01-30T07:48:55.508Z,5.17
2024-01-30T07:51:23.057Z,4.16
2024-01-30T07:53:52.951Z,4.47
2024-01-30T07:56:19.879Z,4.88
2024-01-30T07:58:46.759Z,6.69
2024-01-30T08:01:13.722Z,8.20
2024-01-30T08:03:42.725Z,8.83
2024-01-30T08:06:09.596Z,8.32
2024-01-30T08:08:36.338Z,6.91
2024-01-30T08:11:03.352Z,6.83
2024-01-30T08:13:30.181Z,6.42
2024-01-30T08:15:57.007Z,5.76
2024-01-30T08:18:23.780Z,5.78
2024-01-30T08:20:50.665Z,4.93
2024-01-30T08:23:17.289Z,5.48
2024-01-30T08:25:44.182Z,6.90
2024-01-30T08:28:11.188Z,6.88
2024-01-30T08:30:38.166Z,8.13
2024-01-30T08:33:05.197Z,9.02
2024-01-30T08:35:34.957Z,8.24
2024-01-30T08:38:01.964Z,7.27
2024-01-30T08:40:30.190Z,8.21
2024-01-30T08:42:57.169Z,9.53
2024-01-30T08:45:24.060Z,8.35
2024-01-30T08:47:51.036Z,9.54
2024-01-30T08:50:17.885Z,7.72
2024-01-30T08:52:46.681Z,5.17
2024-01-30T08:55:14.629Z,5.60
2024-01-30T08:57:41.648Z,5.33
2024-01-30T09:00:10.487Z,6.99
2024-01-30T09:02:37.607Z,6.26
2024-01-30T09:05:04.809Z,6.09
2024-01-30T09:07:31.855Z,6.00
2024-01-30T09:09:59.058Z,5.22
2024-01-30T09:12:26.236Z,3.98
2024-01-30T09:14:53.148Z,5.09
2024-01-30T09:17:20.060Z,4.73
2024-01-30T09:19:47.632Z,6.08
2024-01-30T09:22:14.541Z,6.56
2024-01-30T09:24:41.963Z,8.04
2024-01-30T09:27:08.946Z,7.96
2024-01-30T09:29:37.936Z,8.95
2024-01-30T09:32:06.672Z,8.78
2024-01-30T09:34:33.890Z,9.19
2024-01-30T09:37:01.455Z,9.53
2024-01-30T09:39:28.302Z,9.11
2024-01-30T09:42:09.253Z,9.48
2024-01-30T09:44:37.479Z,7.86
2024-01-30T09:47:07.182Z,8.93
2024-01-30T09:49:34.742Z,9.65
2024-01-30T09:52:02.112Z,8.64
2024-01-30T09:54:34.575Z,9.22
2024-01-30T09:57:03.662Z,9.70
2024-01-30T09:59:30.557Z,10.30
2024-01-30T10:01:58.306Z,10.22
2024-01-30T10:04:25.267Z,10.82
2024-01-30T10:06:52.730Z,10.37
2024-01-30T10:09:20.365Z,9.80
2024-01-30T10:11:47.300Z,9.79
2024-01-30T10:14:14.169Z,9.98
2024-01-30T10:16:41.000Z,9.98
2024-01-30T10:19:07.856Z,9.46
2024-01-30T10:21:34.695Z,9.30
2024-01-30T10:24:01.353Z,9.46
2024-01-30T10:26:29.522Z,9.35
2024-01-30T10:28:56.730Z,8.60
2024-01-30T10:31:24.230Z,8.80
2024-01-30T10:33:51.233Z,9.19
2024-01-30T10:36:21.234Z,9.42
2024-01-30T10:38:48.919Z,9.64
2024-01-30T10:41:16.757Z,9.77
2024-01-30T10:43:48.842Z,9.62
2024-01-30T10:46:24.979Z,9.36
2024-01-30T10:48:59.515Z,9.23
2024-01-30T10:51:29.879Z,9.34
2024-01-30T10:53:57.682Z,9.72
2024-01-30T10:56:26.682Z,9.52
2024-01-30T10:58:54.867Z,9.89
2024-01-30T11:01:24.579Z,9.28
2024-01-30T11:03:52.759Z,9.24
2024-01-30T11:06:19.977Z,9.08
2024-01-30T11:08:47.219Z,8.77
2024-01-30T11:11:16.349Z,8.76
2024-01-30T11:13:44.997Z,8.86
2024-01-30T11:16:12.664Z,9.12
2024-01-30T11:18:39.603Z,8.89
2024-01-30T11:21:06.771Z,8.97
2024-01-30T11:23:35.103Z,9.05
2024-01-30T11:26:02.065Z,8.75
2024-01-30T11:28:35.749Z,8.88
2024-01-30T11:31:06.917Z,8.92
2024-01-30T11:33:35.279Z,8.12
2024-01-30T11:36:03.616Z,8.80
2024-01-30T11:38:30.576Z,9.05
2024-01-30T11:41:00.875Z,8.93
2024-01-30T11:43:27.818Z,9.63
2024-01-30T11:45:54.915Z,9.62
2024-01-30T11:48:21.941Z,9.95
2024-01-30T11:50:51.908Z,9.71
2024-01-30T11:53:18.748Z,9.58
2024-01-30T11:55:50.739Z,10.07
2024-01-30T11:58:17.657Z,10.18
2024-01-30T12:00:45.250Z,10.06
2024-01-30T12:03:12.705Z,9.64
2024-01-30T12:05:44.249Z,9.18
2024-01-30T12:08:16.856Z,8.57
2024-01-30T12:10:43.800Z,9.05
2024-01-30T12:13:11.078Z,8.95
2024-01-30T12:15:37.959Z,8.96
2024-01-30T12:18:09.131Z,9.14
2024-01-30T12:20:36.332Z,8.77
2024-01-30T12:23:03.821Z,8.77
2024-01-30T12:25:31.229Z,8.81
2024-01-30T12:27:59.050Z,8.62
2024-01-30T12:30:26.232Z,8.47
2024-01-30T12:32:53.294Z,8.77
2024-01-30T12:35:21.879Z,8.61
2024-01-30T12:37:50.331Z,8.59
2024-01-30T12:40:17.682Z,8.57
2024-01-30T12:42:50.352Z,8.66
2024-01-30T12:45:21.491Z,8.86
2024-01-30T12:47:48.581Z,8.51
2024-01-30T12:50:17.007Z,9.01
2024-01-30T12:52:45.867Z,8.71
2024-01-30T12:55:14.323Z,8.46
2024-01-30T12:57:41.221Z,8.90
2024-01-30T13:00:09.646Z,9.05
2024-01-30T13:02:38.041Z,8.56
2024-01-30T13:05:05.818Z,8.29
2024-01-30T13:07:33.030Z,8.54
2024-01-30T13:10:04.364Z,8.78
2024-01-30T13:12:33.555Z,7.75
2024-01-30T13:15:02.468Z,7.81
2024-01-30T13:17:29.930Z,7.81
2024-01-30T13:20:02.386Z,7.99
2024-01-30T13:22:33.960Z,8.12
2024-01-30T13:25:00.937Z,7.99
2024-01-30T13:27:28.002Z,8.23
2024-01-30T13:29:54.881Z,8.39
2024-01-30T13:32:21.724Z,8.14
2024-01-30T13:34:48.792Z,7.95
2024-01-30T13:37:15.714Z,7.62
2024-01-30T13:39:42.665Z,8.00
2024-01-30T13:42:09.588Z,8.12
2024-01-30T13:44:37.191Z,8.07
2024-01-30T13:47:04.670Z,8.33
2024-01-30T13:49:31.636Z,8.36
2024-01-30T13:51:59.556Z,8.03
2024-01-30T13:54:26.458Z,8.44
2024-01-30T13:56:53.357Z,7.99
2024-01-30T13:59:24.958Z,8.22
2024-01-30T14:01:52.587Z,8.18
2024-01-30T14:04:19.621Z,7.70
2024-01-30T14:06:53.296Z,7.43
2024-01-30T14:09:24.168Z,7.58
2024-01-30T14:11:51.035Z,7.99
2024-01-30T14:14:18.005Z,8.09
2024-01-30T14:16:44.961Z,7.66
2024-01-30T14:19:11.935Z,7.78
2024-01-30T14:21:39.200Z,7.80
2024-01-30T14:24:06.942Z,7.95
2024-01-30T14:26:35.744Z,7.91
2024-01-30T14:29:02.585Z,7.25
2024-01-30T14:31:29.399Z,7.21
2024-01-30T14:33:56.737Z,7.21
2024-01-30T14:36:23.779Z,7.46
2024-01-30T14:38:50.665Z,7.34
2024-01-30T14:41:17.429Z,7.25
2024-01-30T14:43:44.654Z,7.15
2024-01-30T14:46:11.658Z,7.34
2024-01-30T14:48:38.692Z,7.63
2024-01-30T14:51:05.705Z,7.79
2024-01-30T14:53:32.546Z,7.87
2024-01-30T14:55:59.322Z,7.67
2024-01-30T14:58:26.251Z,7.34
2024-01-30T15:00:53.283Z,7.10
2024-01-30T15:03:23.459Z,7.41
2024-01-30T15:05:51.016Z,6.85
2024-01-30T15:08:17.971Z,7.61
2024-01-30T15:10:45.025Z,7.51
2024-01-30T15:13:13.225Z,8.07
2024-01-30T15:15:40.119Z,8.24
2024-01-30T15:18:07.137Z,7.84
2024-01-30T15:20:34.099Z,7.95
2024-01-30T15:23:01.058Z,7.81
2024-01-30T15:25:30.556Z,7.84
2024-01-30T15:27:57.591Z,7.75
2024-01-30T15:30:24.500Z,7.60
2024-01-30T15:32:52.684Z,8.32
2024-01-30T15:35:19.796Z,7.65
2024-01-30T15:37:47.371Z,7.84
2024-01-30T15:40:14.689Z,7.75
2024-01-30T15:42:41.618Z,8.35
2024-01-30T15:45:08.720Z,7.29
2024-01-30T15:47:35.744Z,7.16
2024-01-30T15:50:02.871Z,7.74
2024-01-30T15:52:29.912Z,7.28
2024-01-30T15:54:56.842Z,7.42
2024-01-30T15:57:24.672Z,6.97
2024-01-30T15:59:51.986Z,6.49
2024-01-30T16:02:20.260Z,6.80
2024-01-30T16:04:48.074Z,6.96
2024-01-30T16:07:15.077Z,6.92
2024-01-30T16:09:42.075Z,6.74
2024-01-30T16:12:09.032Z,6.58
2024-01-30T16:14:37.562Z,6.27
2024-01-30T16:17:04.683Z,6.18
2024-01-30T16:19:31.692Z,6.14
2024-01-30T16:21:58.869Z,5.95
2024-01-30T16:24:25.800Z,5.91
2024-01-30T16:26:52.700Z,6.12
2024-01-30T16:29:19.549Z,5.97
2024-01-30T16:31:46.390Z,5.77
2024-01-30T16:34:13.423Z,5.89
2024-01-30T16:36:41.206Z,5.48
2024-01-30T16:39:09.036Z,5.51
2024-01-30T16:41:37.047Z,5.27
2024-01-30T16:44:05.394Z,5.85
2024-01-30T16:46:32.258Z,5.37
2024-01-30T16:48:59.359Z,5.14
2024-01-30T16:51:26.374Z,5.19
2024-01-30T16:53:53.193Z,4.85
2024-01-30T16:56:19.959Z,4.99
2024-01-30T16:58:46.610Z,5.47
2024-01-30T17:01:13.482Z,4.91
2024-01-30T17:03:43.217Z,5.26
2024-01-30T17:06:13.628Z,5.31
2024-01-30T17:08:41.207Z,5.06
2024-01-30T17:11:09.157Z,5.11
2024-01-30T17:13:37.357Z,4.67
2024-01-30T17:16:04.575Z,4.33
2024-01-30T17:18:31.927Z,4.38
2024-01-30T17:20:58.861Z,4.42
2024-01-30T17:23:27.176Z,4.18
2024-01-30T17:25:54.254Z,4.39
2024-01-30T17:28:21.306Z,4.61
2024-01-30T17:30:49.225Z,4.40
2024-01-30T17:33:16.712Z,4.18
2024-01-30T17:35:43.824Z,3.96
2024-01-30T17:38:10.829Z,4.44
2024-01-30T17:40:37.833Z,4.34
2024-01-30T17:43:05.022Z,4.46
2024-01-30T17:45:32.038Z,4.25
2024-01-30T17:47:58.955Z,4.02
2024-01-30T17:50:26.085Z,4.07
2024-01-30T17:52:55.002Z,3.50
2024-01-30T17:55:21.943Z,3.67
2024-01-30T17:57:48.775Z,3.46
2024-01-30T18:00:19.168Z,3.32
2024-01-30T18:02:46.577Z,3.63
2024-01-30T18:05:13.952Z,3.48
2024-01-30T18:07:41.490Z,3.45
2024-01-30T18:10:08.887Z,3.34
2024-01-30T18:12:36.381Z,3.40
2024-01-30T18:15:06.807Z,3.28
2024-01-30T18:17:33.598Z,3.62
2024-01-30T18:20:00.805Z,3.23
2024-01-30T18:22:27.953Z,3.34
2024-01-30T18:24:54.765Z,3.32
2024-01-30T18:27:22.674Z,3.63
2024-01-30T18:29:52.194Z,3.50
2024-01-30T18:32:20.129Z,3.40
2024-01-30T18:34:47.145Z,3.33
2024-01-30T18:37:14.126Z,3.16
2024-01-30T18:39:43.291Z,3.82
2024-01-30T18:42:10.324Z,4.07
2024-01-30T18:44:37.242Z,4.23
2024-01-30T18:47:04.522Z,4.29
2024-01-30T18:49:31.404Z,3.24
2024-01-30T18:51:59.676Z,3.42
2024-01-30T18:54:26.834Z,3.06
2024-01-30T18:56:53.650Z,3.12
2024-01-30T18:59:20.284Z,1.94
2024-01-30T19:01:47.267Z,2.44
2024-01-30T19:04:14.507Z,2.52
2024-01-30T19:06:41.545Z,2.15
2024-01-30T19:09:11.611Z,1.80
2024-01-30T19:11:38.476Z,1.97
2024-01-30T19:14:05.389Z,1.92
2024-01-30T19:16:32.301Z,2.50
2024-01-30T19:18:59.255Z,2.91
2024-01-30T19:21:26.162Z,2.88
2024-01-30T19:23:54.708Z,3.04
2024-01-30T19:26:21.530Z,2.98
2024-01-30T19:28:50.543Z,2.73
2024-01-30T19:31:19.181Z,2.80
2024-01-30T19:33:46.718Z,2.81
2024-01-30T19:36:14.111Z,2.67
2024-01-30T19:38:41.054Z,2.54
2024-01-30T19:41:08.849Z,2.38
2024-01-30T19:43:36.006Z,2.48
2024-01-30T19:46:02.975Z,2.78
2024-01-30T19:48:29.934Z,2.49
2024-01-30T19:50:57.694Z,2.08
2024-01-30T19:53:24.636Z,2.37
2024-01-30T19:55:51.510Z,2.42
2024-01-30T19:58:18.369Z,2.42
2024-01-30T20:00:45.536Z,2.34
2024-01-30T20:03:12.505Z,2.54
2024-01-30T20:05:39.457Z,2.37
2024-01-30T20:08:06.662Z,2.32
2024-01-30T20:10:33.733Z,2.50
2024-01-30T20:13:00.695Z,2.23
2024-01-30T20:15:27.654Z,1.30
2024-01-30T20:17:54.490Z,2.22
2024-01-30T20:20:21.765Z,2.19
2024-01-30T20:22:48.810Z,1.94
2024-01-30T20:25:19.229Z,2.33
2024-01-30T20:27:47.761Z,1.86
2024-01-30T20:30:14.863Z,2.05
2024-01-30T20:32:41.974Z,2.29
2024-01-30T20:35:09.422Z,2.13
2024-01-30T20:37:38.297Z,1.64
2024-01-30T20:40:05.925Z,1.73
2024-01-30T20:42:32.847Z,1.59
2024-01-30T20:44:59.795Z,1.04
2024-01-30T20:47:26.862Z,1.04
2024-01-30T20:49:53.923Z,1.28
2024-01-30T20:52:20.806Z,1.37
2024-01-30T20:54:47.676Z,1.98
2024-01-30T20:57:14.628Z,1.99
2024-01-30T20:59:41.468Z,1.70
2024-01-30T21:02:08.344Z,1.35
2024-01-30T21:04:35.276Z,1.66
2024-01-30T21:07:02.260Z,1.67
2024-01-30T21:09:29.302Z,1.73
2024-01-30T21:11:56.788Z,1.94
2024-01-30T21:14:23.757Z,1.99
2024-01-30T21:16:50.516Z,1.43
2024-01-30T21:19:18.012Z,1.79
2024-01-30T21:21:44.925Z,1.70
2024-01-30T21:24:11.551Z,1.54
2024-01-30T21:26:38.453Z,1.44
2024-01-30T21:29:05.306Z,1.44
2024-01-30T21:31:32.203Z,1.42
2024-01-30T21:33:59.115Z,1.58
2024-01-30T21:36:25.991Z,1.75
2024-01-30T21:38:52.813Z,1.80
2024-01-30T21:41:19.914Z,1.58
2024-01-30T21:43:47.464Z,1.12
2024-01-30T21:46:24.478Z,1.44
2024-01-30T21:48:51.352Z,1.62
2024-01-30T21:51:20.918Z,1.33
2024-01-30T21:53:47.952Z,1.34
2024-01-30T21:56:14.925Z,1.07
2024-01-30T21:58:41.829Z,0.68
2024-01-30T22:01:08.769Z,0.46
2024-01-30T22:03:35.819Z,0.62
2024-01-30T22:06:02.672Z,0.89
2024-01-30T22:08:29.302Z,0.96
2024-01-30T22:10:56.161Z,1.26
2024-01-30T22:13:23.602Z,1.23
2024-01-30T22:15:50.641Z,0.81
2024-01-30T22:18:17.540Z,0.59
2024-01-30T22:20:44.487Z,1.00
2024-01-30T22:23:11.213Z,0.97
2024-01-30T22:25:38.207Z,0.46
2024-01-30T22:28:05.478Z,0.76
2024-01-30T22:30:32.329Z,0.01
2024-01-30T22:32:59.079Z,0.40
2024-01-30T22:35:25.987Z,-0.27
2024-01-30T22:37:53.042Z,0.23
2024-01-30T22:40:19.942Z,0.37
2024-01-30T22:42:46.787Z,0.23
2024-01-30T22:45:13.511Z,1.07
2024-01-30T22:47:40.326Z,1.07
2024-01-30T22:50:07.333Z,-0.70
2024-01-30T22:52:34.253Z,-0.39
2024-01-30T22:55:01.288Z,-0.16
2024-01-30T22:57:29.034Z,0.47
2024-01-30T22:59:56.057Z,0.01
2024-01-30T23:02:23.107Z,0.32
2024-01-30T23:04:50.600Z,0.24
2024-01-30T23:07:18.046Z,0.43
2024-01-30T23:09:47.782Z,0.29
2024-01-30T23:12:14.640Z,0.58
2024-01-30T23:14:41.343Z,0.44
2024-01-30T23:17:08.173Z,0.83
2024-01-30T23:19:34.823Z,0.60
2024-01-30T23:22:01.904Z,0.41
2024-01-30T23:24:28.745Z,0.03
2024-01-30T23:26:55.436Z,-0.40
2024-01-30T23:29:22.285Z,-0.05
2024-01-30T23:31:49.584Z,-0.19
2024-01-30T23:34:16.583Z,0.51
2024-01-30T23:36:44.448Z,0.15
2024-01-30T23:39:11.574Z,0.55
2024-01-30T23:41:38.439Z,0.10
2024-01-30T23:44:06.602Z,0.39
2024-01-30T23:46:33.958Z,-0.52
2024-01-30T23:49:01.903Z,-0.49
2024-01-30T23:51:28.898Z,-0.88
2024-01-30T23:53:55.828Z,-0.72
2024-01-30T23:56:23.055Z,-0.56
2024-01-30T23:58:49.972Z,-0.16
